Terminal Aerodrome Forecast
Issued by NWS

Home | Current Version | Previous Version | Graphics & Text | Print | Product List | Glossary On
Versions: 1 2 3 4 5 6 7 8 9 10 11 12 13 14 15 16 17 18 19 20 21 22 23 24 25 26 27 28 29 30 31 32 33 34 35 36 37 38 39 40
813
FTUS43 KGRB 171120
TAFRHI
TAF
KRHI 171120Z 1712/1812 36006KT 5SM -FZDZ BR OVC006
      TEMPO 1712/1716 3SM -FZRASN BR OVC003
     FM171600 02006KT 6SM BR OVC008
     FM171800 01005KT P6SM OVC008
     FM172300 32004KT P6SM BKN020
     FM180500 VRB03KT P6SM SCT020
     FM180900 26004KT 2SM BR SCT025=

USA.gov is the U.S. government's official web portal to all federal, state and local government web resources and services.